sensor_id;sensor_type;location;lat;lon;timestamp;P1;durP1;ratioP1;P2;durP2;ratioP2
22711;SDS011;11523;50.390;8.072;2022-12-07T03:03:40;15.05;;;10.77;;
22711;SDS011;11523;50.390;8.072;2022-12-07T03:06:22;16.30;;;10.73;;
22711;SDS011;11523;50.390;8.072;2022-12-07T03:08:56;16.58;;;11.50;;
22711;SDS011;11523;50.390;8.072;2022-12-07T03:14:13;17.88;;;12.23;;
22711;SDS011;11523;50.390;8.072;2022-12-07T03:17:26;17.60;;;12.48;;
22711;SDS011;11523;50.390;8.072;2022-12-07T03:19:27;19.05;;;12.63;;
22711;SDS011;11523;50.390;8.072;2022-12-07T03:22:06;19.73;;;11.93;;
22711;SDS011;11523;50.390;8.072;2022-12-07T03:24:35;16.40;;;11.90;;
22711;SDS011;11523;50.390;8.072;2022-12-07T03:27:03;15.18;;;11.20;;
22711;SDS011;11523;50.390;8.072;2022-12-07T03:29:34;17.95;;;11.15;;
22711;SDS011;11523;50.390;8.072;2022-12-07T03:32:44;16.75;;;12.45;;
22711;SDS011;11523;50.390;8.072;2022-12-07T03:34:52;17.83;;;12.38;;
22711;SDS011;11523;50.390;8.072;2022-12-07T03:37:26;14.40;;;11.10;;
22711;SDS011;11523;50.390;8.072;2022-12-07T03:40:07;17.58;;;12.02;;
22711;SDS011;11523;50.390;8.072;2022-12-07T03:42:37;17.23;;;12.95;;
22711;SDS011;11523;50.390;8.072;2022-12-07T03:45:03;17.13;;;11.07;;
22711;SDS011;11523;50.390;8.072;2022-12-07T03:47:31;20.23;;;12.70;;
22711;SDS011;11523;50.390;8.072;2022-12-07T03:50:00;20.38;;;13.25;;
22711;SDS011;11523;50.390;8.072;2022-12-07T03:52:30;16.90;;;11.98;;
22711;SDS011;11523;50.390;8.072;2022-12-07T03:57:26;16.95;;;10.80;;
22711;SDS011;11523;50.390;8.072;2022-12-07T03:59:54;19.50;;;12.77;;
22711;SDS011;11523;50.390;8.072;2022-12-07T04:56:54;18.50;;;13.70;;
22711;SDS011;11523;50.390;8.072;2022-12-07T04:59:26;17.10;;;12.35;;
22711;SDS011;11523;50.390;8.072;2022-12-07T05:01:52;21.05;;;14.07;;
22711;SDS011;11523;50.390;8.072;2022-12-07T05:04:18;19.02;;;13.30;;
22711;SDS011;11523;50.390;8.072;2022-12-07T05:06:44;16.92;;;11.55;;
22711;SDS011;11523;50.390;8.072;2022-12-07T05:09:10;25.73;;;16.17;;
22711;SDS011;11523;50.390;8.072;2022-12-07T05:11:36;22.33;;;11.85;;
22711;SDS011;11523;50.390;8.072;2022-12-07T05:14:07;18.77;;;12.93;;
22711;SDS011;11523;50.390;8.072;2022-12-07T05:16:33;19.25;;;13.23;;
22711;SDS011;11523;50.390;8.072;2022-12-07T05:18:59;20.38;;;13.35;;
22711;SDS011;11523;50.390;8.072;2022-12-07T05:21:25;20.42;;;13.82;;
22711;SDS011;11523;50.390;8.072;2022-12-07T05:23:51;19.10;;;13.25;;
22711;SDS011;11523;50.390;8.072;2022-12-07T05:26:17;18.90;;;13.27;;
22711;SDS011;11523;50.390;8.072;2022-12-07T05:28:43;16.80;;;12.35;;
22711;SDS011;11523;50.390;8.072;2022-12-07T05:31:09;18.77;;;12.45;;
22711;SDS011;11523;50.390;8.072;2022-12-07T05:33:35;17.33;;;13.02;;
22711;SDS011;11523;50.390;8.072;2022-12-07T05:36:01;20.23;;;11.82;;
22711;SDS011;11523;50.390;8.072;2022-12-07T05:38:30;16.05;;;11.77;;
22711;SDS011;11523;50.390;8.072;2022-12-07T05:40:59;16.20;;;11.90;;
22711;SDS011;11523;50.390;8.072;2022-12-07T05:43:26;18.13;;;12.65;;
22711;SDS011;11523;50.390;8.072;2022-12-07T05:45:52;17.25;;;12.52;;
22711;SDS011;11523;50.390;8.072;2022-12-07T05:48:18;19.08;;;11.73;;
22711;SDS011;11523;50.390;8.072;2022-12-07T05:50:43;17.50;;;12.00;;
22711;SDS011;11523;50.390;8.072;2022-12-07T05:53:09;20.85;;;13.20;;
22711;SDS011;11523;50.390;8.072;2022-12-07T05:55:35;19.40;;;12.80;;
22711;SDS011;11523;50.390;8.072;2022-12-07T05:58:01;19.38;;;13.60;;
22711;SDS011;11523;50.390;8.072;2022-12-07T06:00:46;21.83;;;14.50;;
22711;SDS011;11523;50.390;8.072;2022-12-07T06:03:12;21.50;;;13.35;;
22711;SDS011;11523;50.390;8.072;2022-12-07T06:05:38;18.83;;;12.85;;
22711;SDS011;11523;50.390;8.072;2022-12-07T06:08:03;21.20;;;14.35;;
22711;SDS011;11523;50.390;8.072;2022-12-07T06:10:29;16.83;;;11.82;;
22711;SDS011;11523;50.390;8.072;2022-12-07T06:12:56;17.60;;;12.98;;
22711;SDS011;11523;50.390;8.072;2022-12-07T06:15:22;16.33;;;10.73;;
22711;SDS011;11523;50.390;8.072;2022-12-07T06:17:48;18.02;;;13.45;;
22711;SDS011;11523;50.390;8.072;2022-12-07T06:20:14;16.05;;;12.57;;
22711;SDS011;11523;50.390;8.072;2022-12-07T06:22:40;18.35;;;11.77;;
22711;SDS011;11523;50.390;8.072;2022-12-07T06:25:06;16.77;;;12.57;;
22711;SDS011;11523;50.390;8.072;2022-12-07T06:27:32;21.15;;;13.60;;
22711;SDS011;11523;50.390;8.072;2022-12-07T06:29:58;18.05;;;13.05;;
22711;SDS011;11523;50.390;8.072;2022-12-07T06:32:24;21.45;;;13.25;;
22711;SDS011;11523;50.390;8.072;2022-12-07T06:34:51;18.50;;;13.23;;
22711;SDS011;11523;50.390;8.072;2022-12-07T06:37:17;15.07;;;10.23;;
22711;SDS011;11523;50.390;8.072;2022-12-07T06:39:42;15.88;;;11.65;;
22711;SDS011;11523;50.390;8.072;2022-12-07T06:42:08;16.48;;;12.38;;
22711;SDS011;11523;50.390;8.072;2022-12-07T06:44:34;17.58;;;10.82;;
22711;SDS011;11523;50.390;8.072;2022-12-07T06:47:00;20.27;;;13.55;;
22711;SDS011;11523;50.390;8.072;2022-12-07T06:49:27;18.27;;;12.43;;
22711;SDS011;11523;50.390;8.072;2022-12-07T06:51:52;16.95;;;12.60;;
22711;SDS011;11523;50.390;8.072;2022-12-07T06:54:18;18.17;;;12.88;;
22711;SDS011;11523;50.390;8.072;2022-12-07T06:56:44;17.40;;;13.00;;
22711;SDS011;11523;50.390;8.072;2022-12-07T06:59:10;16.83;;;11.60;;
22711;SDS011;11523;50.390;8.072;2022-12-07T07:01:36;17.92;;;10.73;;
22711;SDS011;11523;50.390;8.072;2022-12-07T07:04:02;14.02;;;11.00;;
22711;SDS011;11523;50.390;8.072;2022-12-07T07:06:28;15.48;;;12.30;;
22711;SDS011;11523;50.390;8.072;2022-12-07T07:08:54;15.55;;;10.65;;
22711;SDS011;11523;50.390;8.072;2022-12-07T07:11:20;15.82;;;10.77;;
22711;SDS011;11523;50.390;8.072;2022-12-07T07:13:46;15.38;;;10.95;;
22711;SDS011;11523;50.390;8.072;2022-12-07T07:16:12;14.30;;;11.02;;
22711;SDS011;11523;50.390;8.072;2022-12-07T07:18:38;13.20;;;10.48;;
22711;SDS011;11523;50.390;8.072;2022-12-07T07:21:04;14.20;;;10.85;;
22711;SDS011;11523;50.390;8.072;2022-12-07T07:23:30;13.95;;;10.60;;
22711;SDS011;11523;50.390;8.072;2022-12-07T07:25:56;14.02;;;9.75;;
22711;SDS011;11523;50.390;8.072;2022-12-07T07:28:22;11.98;;;10.25;;
22711;SDS011;11523;50.390;8.072;2022-12-07T07:30:48;11.48;;;9.52;;
22711;SDS011;11523;50.390;8.072;2022-12-07T07:33:14;15.20;;;9.65;;
22711;SDS011;11523;50.390;8.072;2022-12-07T07:35:40;14.55;;;11.48;;
22711;SDS011;11523;50.390;8.072;2022-12-07T07:38:06;11.50;;;9.48;;
22711;SDS011;11523;50.390;8.072;2022-12-07T07:40:33;12.85;;;10.07;;
22711;SDS011;11523;50.390;8.072;2022-12-07T07:42:59;14.35;;;10.43;;
22711;SDS011;11523;50.390;8.072;2022-12-07T07:45:25;15.32;;;9.88;;
22711;SDS011;11523;50.390;8.072;2022-12-07T07:47:51;11.27;;;9.50;;
22711;SDS011;11523;50.390;8.072;2022-12-07T07:50:17;12.40;;;9.32;;
22711;SDS011;11523;50.390;8.072;2022-12-07T07:52:44;12.68;;;10.05;;
22711;SDS011;11523;50.390;8.072;2022-12-07T07:55:10;10.68;;;9.00;;
22711;SDS011;11523;50.390;8.072;2022-12-07T07:57:37;12.45;;;10.57;;
22711;SDS011;11523;50.390;8.072;2022-12-07T08:00:04;14.35;;;9.45;;
22711;SDS011;11523;50.390;8.072;2022-12-07T08:02:30;11.90;;;9.02;;
22711;SDS011;11523;50.390;8.072;2022-12-07T08:04:56;11.82;;;8.80;;
22711;SDS011;11523;50.390;8.072;2022-12-07T08:07:22;11.07;;;9.07;;
22711;SDS011;11523;50.390;8.072;2022-12-07T08:09:48;10.13;;;8.50;;
22711;SDS011;11523;50.390;8.072;2022-12-07T08:12:14;11.68;;;7.63;;
22711;SDS011;11523;50.390;8.072;2022-12-07T08:14:40;7.35;;;5.25;;
22711;SDS011;11523;50.390;8.072;2022-12-07T08:17:06;11.45;;;8.50;;
22711;SDS011;11523;50.390;8.072;2022-12-07T08:19:32;12.55;;;9.07;;
22711;SDS011;11523;50.390;8.072;2022-12-07T08:21:58;11.10;;;7.20;;
22711;SDS011;11523;50.390;8.072;2022-12-07T08:24:24;9.80;;;8.80;;
22711;SDS011;11523;50.390;8.072;2022-12-07T08:26:50;10.18;;;8.55;;
22711;SDS011;11523;50.390;8.072;2022-12-07T08:29:16;10.98;;;8.30;;
22711;SDS011;11523;50.390;8.072;2022-12-07T08:31:42;10.27;;;8.00;;
22711;SDS011;11523;50.390;8.072;2022-12-07T08:34:09;8.25;;;6.60;;
22711;SDS011;11523;50.390;8.072;2022-12-07T08:36:36;9.38;;;8.32;;
22711;SDS011;11523;50.390;8.072;2022-12-07T08:39:02;11.48;;;8.65;;
22711;SDS011;11523;50.390;8.072;2022-12-07T08:41:28;11.90;;;9.02;;
22711;SDS011;11523;50.390;8.072;2022-12-07T08:43:54;10.20;;;9.02;;
22711;SDS011;11523;50.390;8.072;2022-12-07T08:48:53;10.82;;;9.05;;
22711;SDS011;11523;50.390;8.072;2022-12-07T08:51:21;10.48;;;8.45;;
22711;SDS011;11523;50.390;8.072;2022-12-07T08:53:47;11.98;;;8.65;;
22711;SDS011;11523;50.390;8.072;2022-12-07T08:56:13;11.45;;;8.55;;
22711;SDS011;11523;50.390;8.072;2022-12-07T08:58:39;11.18;;;8.35;;
22711;SDS011;11523;50.390;8.072;2022-12-07T09:01:05;12.85;;;8.77;;
22711;SDS011;11523;50.390;8.072;2022-12-07T09:03:31;11.60;;;8.27;;
22711;SDS011;11523;50.390;8.072;2022-12-07T09:05:57;12.63;;;9.07;;
22711;SDS011;11523;50.390;8.072;2022-12-07T09:08:25;12.15;;;9.25;;
22711;SDS011;11523;50.390;8.072;2022-12-07T09:10:52;15.00;;;9.70;;
22711;SDS011;11523;50.390;8.072;2022-12-07T09:13:18;10.57;;;8.68;;
22711;SDS011;11523;50.390;8.072;2022-12-07T09:15:44;11.70;;;8.82;;
22711;SDS011;11523;50.390;8.072;2022-12-07T09:18:09;11.10;;;8.68;;
22711;SDS011;11523;50.390;8.072;2022-12-07T09:20:35;10.73;;;8.23;;
22711;SDS011;11523;50.390;8.072;2022-12-07T09:23:01;11.68;;;7.65;;
22711;SDS011;11523;50.390;8.072;2022-12-07T09:25:27;9.65;;;7.90;;
22711;SDS011;11523;50.390;8.072;2022-12-07T09:27:57;14.20;;;8.82;;
22711;SDS011;11523;50.390;8.072;2022-12-07T09:30:24;10.27;;;7.85;;
22711;SDS011;11523;50.390;8.072;2022-12-07T09:32:52;14.18;;;8.43;;
22711;SDS011;11523;50.390;8.072;2022-12-07T09:35:18;11.63;;;7.75;;
22711;SDS011;11523;50.390;8.072;2022-12-07T09:37:44;12.27;;;7.55;;
22711;SDS011;11523;50.390;8.072;2022-12-07T09:40:10;14.13;;;7.97;;
22711;SDS011;11523;50.390;8.072;2022-12-07T09:42:37;11.13;;;6.43;;
22711;SDS011;11523;50.390;8.072;2022-12-07T09:45:05;11.73;;;6.90;;
22711;SDS011;11523;50.390;8.072;2022-12-07T09:47:32;12.55;;;6.60;;
22711;SDS011;11523;50.390;8.072;2022-12-07T09:50:06;10.77;;;6.47;;
22711;SDS011;11523;50.390;8.072;2022-12-07T09:52:33;8.75;;;6.05;;
22711;SDS011;11523;50.390;8.072;2022-12-07T09:54:59;9.25;;;6.22;;
22711;SDS011;11523;50.390;8.072;2022-12-07T09:57:29;9.40;;;5.25;;
22711;SDS011;11523;50.390;8.072;2022-12-07T09:59:56;8.88;;;5.68;;
22711;SDS011;11523;50.390;8.072;2022-12-07T10:05:00;9.82;;;6.30;;
22711;SDS011;11523;50.390;8.072;2022-12-07T10:07:26;9.55;;;5.65;;
22711;SDS011;11523;50.390;8.072;2022-12-07T10:09:52;14.00;;;5.88;;
22711;SDS011;11523;50.390;8.072;2022-12-07T10:12:18;9.25;;;6.25;;
22711;SDS011;11523;50.390;8.072;2022-12-07T10:14:54;9.90;;;5.90;;
22711;SDS011;11523;50.390;8.072;2022-12-07T10:17:32;11.05;;;7.10;;
22711;SDS011;11523;50.390;8.072;2022-12-07T10:20:08;11.70;;;7.43;;
22711;SDS011;11523;50.390;8.072;2022-12-07T10:22:38;9.13;;;7.10;;
22711;SDS011;11523;50.390;8.072;2022-12-07T10:25:08;10.95;;;7.93;;
22711;SDS011;11523;50.390;8.072;2022-12-07T10:27:34;12.55;;;7.63;;
22711;SDS011;11523;50.390;8.072;2022-12-07T10:30:01;9.85;;;6.80;;
22711;SDS011;11523;50.390;8.072;2022-12-07T10:32:39;11.50;;;7.28;;
22711;SDS011;11523;50.390;8.072;2022-12-07T10:35:19;11.88;;;8.20;;
22711;SDS011;11523;50.390;8.072;2022-12-07T10:37:46;13.05;;;8.63;;
22711;SDS011;11523;50.390;8.072;2022-12-07T10:45:54;15.15;;;9.48;;
22711;SDS011;11523;50.390;8.072;2022-12-07T10:49:13;11.00;;;6.50;;
22711;SDS011;11523;50.390;8.072;2022-12-07T10:51:34;12.85;;;8.27;;
22711;SDS011;11523;50.390;8.072;2022-12-07T10:56:32;14.50;;;8.60;;
22711;SDS011;11523;50.390;8.072;2022-12-07T11:01:43;8.52;;;6.10;;
22711;SDS011;11523;50.390;8.072;2022-12-07T11:04:33;11.23;;;7.25;;
22711;SDS011;11523;50.390;8.072;2022-12-07T11:07:11;9.55;;;6.55;;
22711;SDS011;11523;50.390;8.072;2022-12-07T11:12:28;9.45;;;4.93;;
22711;SDS011;11523;50.390;8.072;2022-12-07T11:15:02;9.98;;;5.10;;
22711;SDS011;11523;50.390;8.072;2022-12-07T11:17:41;9.90;;;5.40;;
22711;SDS011;11523;50.390;8.072;2022-12-07T11:20:19;10.38;;;5.78;;
22711;SDS011;11523;50.390;8.072;2022-12-07T11:25:49;8.43;;;5.53;;
22711;SDS011;11523;50.390;8.072;2022-12-07T11:30:52;9.77;;;6.13;;
22711;SDS011;11523;50.390;8.072;2022-12-07T11:36:11;8.30;;;5.10;;
22711;SDS011;11523;50.390;8.072;2022-12-07T11:38:50;10.57;;;6.05;;
22711;SDS011;11523;50.390;8.072;2022-12-07T11:41:22;5.88;;;4.53;;
22711;SDS011;11523;50.390;8.072;2022-12-07T11:43:57;9.55;;;5.40;;
22711;SDS011;11523;50.390;8.072;2022-12-07T11:46:47;7.97;;;4.93;;
22711;SDS011;11523;50.390;8.072;2022-12-07T11:49:12;6.78;;;5.28;;
22711;SDS011;11523;50.390;8.072;2022-12-07T11:51:40;7.13;;;4.20;;
22711;SDS011;11523;50.390;8.072;2022-12-07T11:54:19;6.72;;;4.72;;
22711;SDS011;11523;50.390;8.072;2022-12-07T11:56:45;8.13;;;5.18;;
22711;SDS011;11523;50.390;8.072;2022-12-07T11:59:16;9.60;;;5.25;;
22711;SDS011;11523;50.390;8.072;2022-12-07T12:01:53;8.95;;;5.50;;
22711;SDS011;11523;50.390;8.072;2022-12-07T12:07:06;9.23;;;2.85;;
22711;SDS011;11523;50.390;8.072;2022-12-07T12:09:50;7.60;;;2.83;;
22711;SDS011;11523;50.390;8.072;2022-12-07T12:12:21;6.90;;;3.10;;
22711;SDS011;11523;50.390;8.072;2022-12-07T12:14:57;9.95;;;3.28;;
22711;SDS011;11523;50.390;8.072;2022-12-07T12:22:39;6.32;;;2.50;;
22711;SDS011;11523;50.390;8.072;2022-12-07T12:25:09;6.22;;;2.63;;
22711;SDS011;11523;50.390;8.072;2022-12-07T12:27:38;5.60;;;2.92;;
22711;SDS011;11523;50.390;8.072;2022-12-07T12:30:06;7.30;;;3.33;;
22711;SDS011;11523;50.390;8.072;2022-12-07T12:32:38;5.70;;;3.17;;
22711;SDS011;11523;50.390;8.072;2022-12-07T12:35:21;6.07;;;2.97;;
22711;SDS011;11523;50.390;8.072;2022-12-07T12:37:52;7.75;;;3.75;;
22711;SDS011;11523;50.390;8.072;2022-12-07T12:42:56;9.68;;;3.55;;
22711;SDS011;11523;50.390;8.072;2022-12-07T12:45:23;5.85;;;3.40;;
22711;SDS011;11523;50.390;8.072;2022-12-07T12:47:56;8.48;;;3.20;;
22711;SDS011;11523;50.390;8.072;2022-12-07T12:52:53;5.63;;;3.03;;
22711;SDS011;11523;50.390;8.072;2022-12-07T12:55:22;10.63;;;3.65;;
22711;SDS011;11523;50.390;8.072;2022-12-07T13:00:35;11.00;;;4.40;;
22711;SDS011;11523;50.390;8.072;2022-12-07T13:03:01;8.82;;;3.28;;
22711;SDS011;11523;50.390;8.072;2022-12-07T13:05:31;6.35;;;3.30;;
22711;SDS011;11523;50.390;8.072;2022-12-07T13:08:01;5.68;;;3.88;;
22711;SDS011;11523;50.390;8.072;2022-12-07T13:18:21;5.50;;;2.78;;
22711;SDS011;11523;50.390;8.072;2022-12-07T13:20:49;7.50;;;3.35;;
22711;SDS011;11523;50.390;8.072;2022-12-07T13:23:16;6.30;;;3.40;;
22711;SDS011;11523;50.390;8.072;2022-12-07T13:25:45;5.80;;;3.42;;
22711;SDS011;11523;50.390;8.072;2022-12-07T13:30:49;8.38;;;3.03;;
22711;SDS011;11523;50.390;8.072;2022-12-07T13:33:15;6.20;;;3.00;;
22711;SDS011;11523;50.390;8.072;2022-12-07T13:35:43;9.10;;;3.17;;
22711;SDS011;11523;50.390;8.072;2022-12-07T13:38:16;4.35;;;3.00;;
22711;SDS011;11523;50.390;8.072;2022-12-07T13:40:58;6.93;;;3.22;;
22711;SDS011;11523;50.390;8.072;2022-12-07T13:43:24;4.28;;;2.90;;
22711;SDS011;11523;50.390;8.072;2022-12-07T13:45:55;4.82;;;2.70;;
22711;SDS011;11523;50.390;8.072;2022-12-07T13:48:23;6.30;;;3.05;;
22711;SDS011;11523;50.390;8.072;2022-12-07T13:50:53;4.72;;;2.95;;
22711;SDS011;11523;50.390;8.072;2022-12-07T13:53:19;5.45;;;3.00;;
22711;SDS011;11523;50.390;8.072;2022-12-07T13:55:46;5.65;;;3.13;;
22711;SDS011;11523;50.390;8.072;2022-12-07T13:58:12;5.32;;;3.00;;
22711;SDS011;11523;50.390;8.072;2022-12-07T14:00:39;7.90;;;3.25;;
22711;SDS011;11523;50.390;8.072;2022-12-07T14:05:37;7.00;;;3.25;;
22711;SDS011;11523;50.390;8.072;2022-12-07T14:08:04;8.23;;;3.53;;
22711;SDS011;11523;50.390;8.072;2022-12-07T14:12:58;4.55;;;3.20;;
22711;SDS011;11523;50.390;8.072;2022-12-07T14:15:26;7.50;;;3.80;;
22711;SDS011;11523;50.390;8.072;2022-12-07T14:17:54;5.82;;;3.90;;
22711;SDS011;11523;50.390;8.072;2022-12-07T14:22:56;7.40;;;3.72;;
22711;SDS011;11523;50.390;8.072;2022-12-07T14:25:23;8.00;;;3.78;;
22711;SDS011;11523;50.390;8.072;2022-12-07T14:27:51;6.00;;;3.13;;
22711;SDS011;11523;50.390;8.072;2022-12-07T14:30:20;4.03;;;2.83;;
22711;SDS011;11523;50.390;8.072;2022-12-07T14:32:46;5.43;;;3.35;;
22711;SDS011;11523;50.390;8.072;2022-12-07T14:35:16;7.20;;;3.40;;
22711;SDS011;11523;50.390;8.072;2022-12-07T14:37:43;10.10;;;3.80;;
22711;SDS011;11523;50.390;8.072;2022-12-07T14:40:28;6.55;;;4.25;;
22711;SDS011;11523;50.390;8.072;2022-12-07T14:43:05;6.88;;;4.20;;
22711;SDS011;11523;50.390;8.072;2022-12-07T14:45:31;10.55;;;4.40;;
22711;SDS011;11523;50.390;8.072;2022-12-07T14:47:57;8.18;;;4.25;;
22711;SDS011;11523;50.390;8.072;2022-12-07T14:50:23;6.85;;;3.55;;
22711;SDS011;11523;50.390;8.072;2022-12-07T14:52:57;6.57;;;3.78;;
22711;SDS011;11523;50.390;8.072;2022-12-07T14:55:28;6.53;;;3.40;;
22711;SDS011;11523;50.390;8.072;2022-12-07T14:57:55;10.90;;;4.32;;
22711;SDS011;11523;50.390;8.072;2022-12-07T15:00:22;5.55;;;3.63;;
22711;SDS011;11523;50.390;8.072;2022-12-07T15:02:48;4.90;;;2.75;;
22711;SDS011;11523;50.390;8.072;2022-12-07T15:05:15;12.07;;;6.75;;
22711;SDS011;11523;50.390;8.072;2022-12-07T15:07:41;6.13;;;3.22;;
22711;SDS011;11523;50.390;8.072;2022-12-07T15:10:28;5.32;;;2.72;;
22711;SDS011;11523;50.390;8.072;2022-12-07T15:12:55;5.10;;;2.85;;
22711;SDS011;11523;50.390;8.072;2022-12-07T15:15:41;6.55;;;2.97;;
22711;SDS011;11523;50.390;8.072;2022-12-07T15:18:07;3.53;;;2.85;;
22711;SDS011;11523;50.390;8.072;2022-12-07T15:20:33;4.68;;;3.00;;
22711;SDS011;11523;50.390;8.072;2022-12-07T15:22:58;4.43;;;3.40;;
22711;SDS011;11523;50.390;8.072;2022-12-07T15:25:24;5.78;;;2.90;;
22711;SDS011;11523;50.390;8.072;2022-12-07T15:27:50;5.95;;;3.45;;
22711;SDS011;11523;50.390;8.072;2022-12-07T15:30:16;7.22;;;3.92;;
22711;SDS011;11523;50.390;8.072;2022-12-07T15:32:42;4.72;;;3.53;;
22711;SDS011;11523;50.390;8.072;2022-12-07T15:35:08;5.85;;;3.40;;
22711;SDS011;11523;50.390;8.072;2022-12-07T15:37:34;6.80;;;3.90;;
22711;SDS011;11523;50.390;8.072;2022-12-07T15:40:00;4.78;;;3.78;;
22711;SDS011;11523;50.390;8.072;2022-12-07T15:42:26;8.57;;;4.63;;
22711;SDS011;11523;50.390;8.072;2022-12-07T15:44:52;6.57;;;4.75;;
22711;SDS011;11523;50.390;8.072;2022-12-07T15:47:34;6.13;;;4.60;;
22711;SDS011;11523;50.390;8.072;2022-12-07T15:50:04;7.13;;;4.80;;
22711;SDS011;11523;50.390;8.072;2022-12-07T15:52:30;5.57;;;4.35;;
22711;SDS011;11523;50.390;8.072;2022-12-07T15:54:56;6.50;;;4.75;;
22711;SDS011;11523;50.390;8.072;2022-12-07T15:57:22;6.43;;;4.05;;
22711;SDS011;11523;50.390;8.072;2022-12-07T15:59:48;4.50;;;3.83;;
22711;SDS011;11523;50.390;8.072;2022-12-07T16:02:14;4.93;;;3.50;;
22711;SDS011;11523;50.390;8.072;2022-12-07T16:04:40;5.40;;;4.05;;
22711;SDS011;11523;50.390;8.072;2022-12-07T16:07:06;6.60;;;4.10;;
22711;SDS011;11523;50.390;8.072;2022-12-07T16:09:32;7.30;;;3.60;;
22711;SDS011;11523;50.390;8.072;2022-12-07T16:11:58;6.95;;;3.92;;
22711;SDS011;11523;50.390;8.072;2022-12-07T16:14:23;6.20;;;4.00;;
22711;SDS011;11523;50.390;8.072;2022-12-07T16:16:49;7.03;;;3.72;;
22711;SDS011;11523;50.390;8.072;2022-12-07T16:19:15;5.20;;;3.83;;
22711;SDS011;11523;50.390;8.072;2022-12-07T16:21:41;6.53;;;3.90;;
22711;SDS011;11523;50.390;8.072;2022-12-07T16:24:07;7.50;;;4.72;;
22711;SDS011;11523;50.390;8.072;2022-12-07T16:26:35;5.78;;;4.50;;
22711;SDS011;11523;50.390;8.072;2022-12-07T16:29:01;7.68;;;4.75;;
22711;SDS011;11523;50.390;8.072;2022-12-07T16:31:27;6.18;;;4.25;;
22711;SDS011;11523;50.390;8.072;2022-12-07T16:33:54;5.18;;;4.30;;
22711;SDS011;11523;50.390;8.072;2022-12-07T16:36:20;7.60;;;4.85;;
22711;SDS011;11523;50.390;8.072;2022-12-07T16:38:53;7.82;;;4.90;;
22711;SDS011;11523;50.390;8.072;2022-12-07T16:41:19;8.65;;;5.88;;
22711;SDS011;11523;50.390;8.072;2022-12-07T16:43:45;7.03;;;4.95;;
22711;SDS011;11523;50.390;8.072;2022-12-07T16:46:11;6.55;;;4.72;;
22711;SDS011;11523;50.390;8.072;2022-12-07T16:48:38;6.45;;;5.40;;
22711;SDS011;11523;50.390;8.072;2022-12-07T16:51:05;8.55;;;5.60;;
22711;SDS011;11523;50.390;8.072;2022-12-07T16:53:31;7.68;;;5.60;;
22711;SDS011;11523;50.390;8.072;2022-12-07T16:55:57;7.85;;;5.63;;
22711;SDS011;11523;50.390;8.072;2022-12-07T16:58:30;9.45;;;5.43;;
22711;SDS011;11523;50.390;8.072;2022-12-07T17:00:56;8.18;;;5.75;;
22711;SDS011;11523;50.390;8.072;2022-12-07T17:03:22;7.07;;;5.57;;
22711;SDS011;11523;50.390;8.072;2022-12-07T17:05:48;6.80;;;4.80;;
22711;SDS011;11523;50.390;8.072;2022-12-07T17:08:14;6.25;;;5.28;;
22711;SDS011;11523;50.390;8.072;2022-12-07T17:10:41;7.40;;;5.68;;
22711;SDS011;11523;50.390;8.072;2022-12-07T17:13:08;9.85;;;6.25;;
22711;SDS011;11523;50.390;8.072;2022-12-07T17:16:02;10.55;;;6.47;;
22711;SDS011;11523;50.390;8.072;2022-12-07T17:18:32;10.82;;;6.10;;
22711;SDS011;11523;50.390;8.072;2022-12-07T17:21:03;10.18;;;5.53;;
22711;SDS011;11523;50.390;8.072;2022-12-07T17:23:29;9.00;;;5.43;;
22711;SDS011;11523;50.390;8.072;2022-12-07T17:25:55;11.07;;;5.60;;
22711;SDS011;11523;50.390;8.072;2022-12-07T17:28:21;8.70;;;5.53;;
22711;SDS011;11523;50.390;8.072;2022-12-07T17:30:47;13.63;;;6.38;;
22711;SDS011;11523;50.390;8.072;2022-12-07T17:33:13;10.27;;;6.78;;
22711;SDS011;11523;50.390;8.072;2022-12-07T17:35:39;9.88;;;6.65;;
22711;SDS011;11523;50.390;8.072;2022-12-07T17:38:05;10.60;;;6.20;;
22711;SDS011;11523;50.390;8.072;2022-12-07T17:40:31;8.68;;;6.43;;
22711;SDS011;11523;50.390;8.072;2022-12-07T17:42:57;9.10;;;6.35;;
22711;SDS011;11523;50.390;8.072;2022-12-07T17:45:23;9.13;;;5.95;;
22711;SDS011;11523;50.390;8.072;2022-12-07T17:47:48;9.95;;;6.65;;
22711;SDS011;11523;50.390;8.072;2022-12-07T17:50:14;9.98;;;5.40;;
22711;SDS011;11523;50.390;8.072;2022-12-07T17:52:40;8.82;;;5.05;;
22711;SDS011;11523;50.390;8.072;2022-12-07T17:55:25;9.98;;;5.90;;
22711;SDS011;11523;50.390;8.072;2022-12-07T17:57:51;12.27;;;6.22;;
22711;SDS011;11523;50.390;8.072;2022-12-07T18:00:17;9.27;;;5.50;;
22711;SDS011;11523;50.390;8.072;2022-12-07T18:02:43;8.98;;;5.25;;
22711;SDS011;11523;50.390;8.072;2022-12-07T18:05:09;10.05;;;6.10;;
22711;SDS011;11523;50.390;8.072;2022-12-07T18:07:35;9.00;;;4.93;;
22711;SDS011;11523;50.390;8.072;2022-12-07T18:10:01;9.73;;;4.93;;
22711;SDS011;11523;50.390;8.072;2022-12-07T18:12:27;8.38;;;5.32;;
22711;SDS011;11523;50.390;8.072;2022-12-07T18:14:53;8.30;;;5.45;;
22711;SDS011;11523;50.390;8.072;2022-12-07T18:17:19;9.20;;;5.60;;
22711;SDS011;11523;50.390;8.072;2022-12-07T18:19:45;12.80;;;6.70;;
22711;SDS011;11523;50.390;8.072;2022-12-07T18:22:11;13.27;;;6.68;;
22711;SDS011;11523;50.390;8.072;2022-12-07T18:24:37;11.93;;;6.47;;
22711;SDS011;11523;50.390;8.072;2022-12-07T18:27:03;12.10;;;6.65;;
22711;SDS011;11523;50.390;8.072;2022-12-07T18:29:29;15.00;;;6.80;;
22711;SDS011;11523;50.390;8.072;2022-12-07T18:31:55;13.43;;;6.43;;
22711;SDS011;11523;50.390;8.072;2022-12-07T18:34:21;12.45;;;7.07;;
22711;SDS011;11523;50.390;8.072;2022-12-07T18:36:48;8.55;;;6.53;;
22711;SDS011;11523;50.390;8.072;2022-12-07T18:39:14;9.23;;;5.90;;
22711;SDS011;11523;50.390;8.072;2022-12-07T18:41:41;9.23;;;5.80;;
22711;SDS011;11523;50.390;8.072;2022-12-07T18:44:07;11.20;;;5.70;;
22711;SDS011;11523;50.390;8.072;2022-12-07T18:46:33;9.70;;;5.40;;
22711;SDS011;11523;50.390;8.072;2022-12-07T18:48:59;14.05;;;6.13;;
22711;SDS011;11523;50.390;8.072;2022-12-07T18:51:25;8.25;;;5.15;;
22711;SDS011;11523;50.390;8.072;2022-12-07T18:53:54;9.88;;;5.97;;
22711;SDS011;11523;50.390;8.072;2022-12-07T18:56:21;9.05;;;5.07;;
22711;SDS011;11523;50.390;8.072;2022-12-07T18:58:52;11.93;;;5.78;;
22711;SDS011;11523;50.390;8.072;2022-12-07T19:01:37;9.43;;;5.20;;
22711;SDS011;11523;50.390;8.072;2022-12-07T19:04:03;10.40;;;4.60;;
22711;SDS011;11523;50.390;8.072;2022-12-07T19:06:29;12.60;;;6.82;;
22711;SDS011;11523;50.390;8.072;2022-12-07T19:08:55;8.57;;;4.97;;
22711;SDS011;11523;50.390;8.072;2022-12-07T19:11:22;12.05;;;6.43;;
22711;SDS011;11523;50.390;8.072;2022-12-07T19:14:07;9.05;;;5.68;;
22711;SDS011;11523;50.390;8.072;2022-12-07T19:16:33;10.48;;;5.63;;
22711;SDS011;11523;50.390;8.072;2022-12-07T19:18:59;9.95;;;4.72;;
22711;SDS011;11523;50.390;8.072;2022-12-07T19:21:25;6.65;;;4.70;;
22711;SDS011;11523;50.390;8.072;2022-12-07T19:23:51;10.02;;;5.30;;
22711;SDS011;11523;50.390;8.072;2022-12-07T19:26:17;7.47;;;4.82;;
22711;SDS011;11523;50.390;8.072;2022-12-07T19:28:43;6.60;;;5.05;;
22711;SDS011;11523;50.390;8.072;2022-12-07T19:31:09;12.07;;;5.28;;
22711;SDS011;11523;50.390;8.072;2022-12-07T19:33:36;8.25;;;5.55;;
22711;SDS011;11523;50.390;8.072;2022-12-07T19:36:02;11.55;;;5.10;;
22711;SDS011;11523;50.390;8.072;2022-12-07T19:38:29;10.63;;;5.65;;
22711;SDS011;11523;50.390;8.072;2022-12-07T19:40:55;8.35;;;5.72;;
22711;SDS011;11523;50.390;8.072;2022-12-07T19:43:28;8.38;;;5.30;;
22711;SDS011;11523;50.390;8.072;2022-12-07T19:45:54;11.55;;;6.38;;
22711;SDS011;11523;50.390;8.072;2022-12-07T19:48:20;12.00;;;6.88;;